Time;durP1;ratioP1;P1;durP2;ratioP2;P2;SDS_P1;SDS_P2;PMS_P1;PMS_P2;Temp;Humidity;BMP_temperature;BMP_pressure;BME280_temperature;BME280_humidity;BME280_pressure;Samples;Min_cycle;Max_cycle;Signal;HPM_P1;HPM_P2
2022/12/06 00:01:34;;;;;;;7.20;6.60;;;7.60;52.30;;;;;;20962;6716;116679;-75
2022/12/06 00:04:10;;;;;;;7.50;7.00;;;7.60;52.30;;;;;;20920;6730;129591;-75
2022/12/06 00:06:46;;;;;;;7.07;6.57;;;7.10;54.20;;;;;;20812;6716;117682;-75
2022/12/06 00:09:22;;;;;;;7.78;7.20;;;7.10;53.50;;;;;;20779;6716;275791;-76
2022/12/06 00:11:57;;;;;;;7.10;6.60;;;7.20;53.60;;;;;;20945;6731;117279;-75
2022/12/06 00:14:33;;;;;;;7.33;6.77;;;7.20;53.60;;;;;;20919;6731;117278;-75
2022/12/06 00:17:09;;;;;;;6.00;5.60;;;6.80;55.00;;;;;;20993;6716;116592;-75
2022/12/06 00:19:48;;;;;;;8.50;7.80;;;6.80;54.30;;;;;;20770;6716;336461;-76
2022/12/06 00:22:21;;;;;;;6.60;6.20;;;7.00;54.20;;;;;;21030;6701;117129;-77
2022/12/06 00:24:56;;;;;;;6.67;6.17;;;7.00;54.10;;;;;;20996;6701;117051;-75
2022/12/06 00:27:32;;;;;;;6.87;6.23;;;6.80;54.30;;;;;;20993;6716;116727;-75
2022/12/06 00:30:08;;;;;;;7.70;7.10;;;6.70;54.70;;;;;;20806;6701;283885;-75
2022/12/06 00:32:43;;;;;;;8.20;7.60;;;6.80;54.40;;;;;;20742;6731;276383;-75
2022/12/06 00:35:19;;;;;;;7.80;7.20;;;7.20;54.00;;;;;;20720;6716;307990;-76
2022/12/06 00:37:54;;;;;;;7.27;6.67;;;7.50;53.40;;;;;;21002;6716;116235;-75
2022/12/06 00:40:30;;;;;;;6.73;6.13;;;7.40;53.40;;;;;;21009;6731;117584;-75
2022/12/06 00:43:11;;;;;;;7.70;7.20;;;7.10;53.80;;;;;;20682;6748;306768;-75
2022/12/06 00:45:42;;;;;;;7.72;7.22;;;7.40;52.90;;;;;;20648;6725;337371;-76
2022/12/06 00:48:18;;;;;;;6.87;6.43;;;7.40;53.30;;;;;;20878;6747;118730;-75
2022/12/06 00:50:53;;;;;;;7.97;7.40;;;7.40;53.40;;;;;;20722;6732;335177;-76
2022/12/06 00:53:29;;;;;;;6.67;6.10;;;7.40;53.20;;;;;;20915;6740;117093;-75
2022/12/06 00:56:04;;;;;;;7.72;7.22;;;7.20;53.30;;;;;;20584;6734;307378;-76
2022/12/06 00:58:40;;;;;;;8.07;7.47;;;7.30;53.30;;;;;;20720;6734;306548;-75
2022/12/06 01:01:16;;;;;;;6.60;6.20;;;7.30;52.80;;;;;;20908;6738;116633;-75
2022/12/06 01:03:55;;;;;;;7.72;7.22;;;7.30;52.80;;;;;;20744;6726;276126;-76
2022/12/06 01:06:30;;;;;;;7.83;7.20;;;7.30;52.80;;;;;;20567;6730;278380;-77
2022/12/06 01:09:07;;;;;;;7.43;6.93;;;7.50;52.40;;;;;;20779;6716;276412;-77
2022/12/06 01:11:49;;;;;;;7.73;7.13;;;7.60;52.00;;;;;;20780;6716;305350;-78
2022/12/06 01:14:18;;;;;;;7.00;6.50;;;7.60;51.60;;;;;;20932;6731;120795;-77
2022/12/06 01:16:55;;;;;;;7.20;6.70;;;7.30;51.80;;;;;;20606;6772;312639;-77
2022/12/06 01:19:31;;;;;;;8.25;7.65;;;7.20;52.70;;;;;;20782;6716;305664;-77
2022/12/06 01:22:06;;;;;;;7.32;6.82;;;7.30;52.10;;;;;;20766;6716;319391;-77
2022/12/06 01:24:42;;;;;;;7.97;7.37;;;7.40;51.80;;;;;;20758;6716;306394;-77
2022/12/06 01:27:17;;;;;;;7.23;6.73;;;7.40;51.80;;;;;;20941;6734;116635;-77
2022/12/06 01:29:53;;;;;;;7.43;6.93;;;7.10;52.20;;;;;;20707;6739;301911;-77
2022/12/06 01:32:29;;;;;;;6.80;6.40;;;7.10;52.40;;;;;;20935;6728;123527;-76
2022/12/06 01:35:04;;;;;;;7.75;7.25;;;6.80;52.50;;;;;;20749;6709;323064;-77
2022/12/06 01:37:40;;;;;;;6.53;6.13;;;6.80;52.70;;;;;;20996;6716;116730;-77
2022/12/06 01:40:16;;;;;;;7.90;7.30;;;6.60;52.80;;;;;;20809;6701;305847;-77
2022/12/06 01:42:51;;;;;;;7.62;7.12;;;6.70;53.10;;;;;;20780;6716;337669;-77
2022/12/06 01:45:27;;;;;;;7.03;6.62;;;6.80;52.60;;;;;;20707;6714;307474;-77
2022/12/06 01:48:03;;;;;;;7.33;6.73;;;6.70;52.20;;;;;;20975;6714;117133;-77
2022/12/06 01:50:41;;;;;;;6.73;6.23;;;6.30;52.80;;;;;;20982;6719;117159;-79
2022/12/06 01:53:17;;;;;;;6.13;5.63;;;6.30;52.80;;;;;;20983;6718;116688;-77
2022/12/06 01:55:51;;;;;;;5.77;5.37;;;6.00;53.50;;;;;;20833;6730;117767;-77
2022/12/06 01:58:28;;;;;;;7.43;6.93;;;5.70;54.00;;;;;;20734;6725;333860;-79
2022/12/06 02:01:03;;;;;;;6.30;5.90;;;5.90;54.10;;;;;;20945;6730;121784;-77
2022/12/06 02:03:39;;;;;;;5.77;5.37;;;5.90;54.00;;;;;;20944;6731;117227;-77
2022/12/06 02:06:14;;;;;;;7.50;7.00;;;5.60;54.30;;;;;;20640;6714;279478;-78
2022/12/06 02:08:50;;;;;;;7.10;6.62;;;5.80;54.50;;;;;;20785;6714;305709;-78
2022/12/06 02:11:26;;;;;;;7.30;6.70;;;6.20;54.20;;;;;;20952;6731;116733;-78
2022/12/06 02:14:01;;;;;;;6.40;5.90;;;6.10;54.00;;;;;;20912;6746;116747;-78
2022/12/06 02:17:07;;;;;;;7.00;6.60;;;5.90;54.50;;;;;;20572;6730;317872;-77
2022/12/06 02:19:50;;;;;;;7.30;6.90;;;5.90;54.50;;;;;;20779;6716;276149;-79
2022/12/06 02:22:38;;;;;;;6.97;6.27;;;6.30;53.70;;;;;;20916;6730;118678;-78
2022/12/06 02:25:34;;;;;;;6.75;6.35;;;6.20;53.80;;;;;;20719;6714;306805;-76
2022/12/06 02:28:19;;;;;;;6.57;6.18;;;6.30;53.80;;;;;;20686;6739;305535;-76
2022/12/06 02:30:58;;;;;;;6.90;6.40;;;6.90;53.00;;;;;;20709;6739;307071;-77
2022/12/06 02:33:34;;;;;;;5.90;5.43;;;6.80;52.90;;;;;;20925;6739;116776;-76
2022/12/06 02:36:29;;;;;;;6.10;5.60;;;6.70;53.10;;;;;;20864;6709;117064;-77
2022/12/06 02:39:05;;;;;;;5.40;5.00;;;6.50;53.80;;;;;;21027;6694;120892;-76
2022/12/06 02:41:48;;;;;;;5.60;5.20;;;6.20;54.40;;;;;;20950;6716;116721;-76
2022/12/06 02:44:24;;;;;;;5.67;5.23;;;6.00;54.90;;;;;;20941;6719;180270;-77
2022/12/06 02:46:59;;;;;;;6.83;6.33;;;5.90;55.30;;;;;;20760;6716;304955;-76
2022/12/06 02:49:35;;;;;;;6.33;5.80;;;6.10;55.10;;;;;;20992;6716;117117;-76
2022/12/06 02:52:11;;;;;;;6.67;6.27;;;6.40;54.50;;;;;;20800;6701;336016;-76
2022/12/06 02:54:47;;;;;;;6.30;5.80;;;6.40;54.50;;;;;;20975;6709;116801;-76
2022/12/06 02:57:22;;;;;;;6.47;6.03;;;6.40;54.40;;;;;;20829;6719;116911;-77
2022/12/06 02:59:59;;;;;;;6.97;6.57;;;6.40;54.50;;;;;;20709;6787;311574;-76
2022/12/06 03:02:34;;;;;;;6.85;6.37;;;6.40;54.50;;;;;;20653;6731;305811;-76
2022/12/06 03:05:14;;;;;;;6.70;6.30;;;7.10;52.90;;;;;;20663;6732;280177;-76
2022/12/06 03:07:49;;;;;;;6.33;5.93;;;7.10;52.80;;;;;;20979;6715;116707;-76
2022/12/06 03:10:38;;;;;;;6.70;6.30;;;7.00;52.90;;;;;;20334;6719;306054;-76
2022/12/06 03:13:17;;;;;;;6.40;6.10;;;7.20;52.00;;;;;;20783;6716;296971;-76
2022/12/06 03:15:56;;;;;;;6.33;5.93;;;7.20;52.00;;;;;;20889;6716;118192;-76
2022/12/06 03:18:48;;;;;;;5.50;5.10;;;7.10;52.30;;;;;;21006;6700;117073;-76
2022/12/06 03:21:25;;;;;;;6.50;6.00;;;6.80;52.80;;;;;;20724;6730;280877;-77
2022/12/06 03:24:00;;;;;;;5.53;5.17;;;6.80;52.80;;;;;;20928;6730;116745;-76
2022/12/06 03:26:36;;;;;;;6.15;5.75;;;6.80;53.00;;;;;;20541;6730;309442;-76
2022/12/06 03:29:12;;;;;;;6.12;5.72;;;6.80;52.70;;;;;;20732;6730;306052;-76
2022/12/06 03:31:47;;;;;;;5.40;5.10;;;7.10;52.30;;;;;;20943;6730;117040;-76
2022/12/06 03:34:31;;;;;;;5.23;4.83;;;7.00;52.50;;;;;;20907;6732;116740;-76
2022/12/06 03:37:07;;;;;;;5.03;4.70;;;6.50;53.90;;;;;;20944;6730;117114;-76
2022/12/06 03:39:43;;;;;;;6.20;5.80;;;6.50;53.60;;;;;;20733;6731;339813;-76
2022/12/06 03:42:19;;;;;;;6.03;5.63;;;6.70;53.60;;;;;;20978;6716;116696;-76
2022/12/06 03:44:54;;;;;;;7.20;6.50;;;6.70;53.60;;;;;;20901;6734;116765;-76
2022/12/06 03:47:30;;;;;;;41.23;29.97;;;6.50;53.90;;;;;;20972;6716;117040;-76
2022/12/06 03:50:06;;;;;;;26.42;23.62;;;6.30;54.10;;;;;;20808;6701;307274;-76
2022/12/06 03:52:42;;;;;;;10.37;9.47;;;6.50;53.80;;;;;;20935;6734;119347;-76
2022/12/06 03:55:18;;;;;;;10.50;9.67;;;6.60;53.40;;;;;;20716;6716;306505;-76
2022/12/06 03:57:53;;;;;;;5.93;5.57;;;6.60;53.30;;;;;;20993;6716;116934;-76
2022/12/06 04:00:29;;;;;;;6.55;6.15;;;6.50;53.30;;;;;;20707;6731;334337;-76
2022/12/06 04:03:05;;;;;;;7.50;7.00;;;6.60;53.20;;;;;;20736;6731;278625;-76
2022/12/06 04:05:40;;;;;;;6.80;6.30;;;6.80;52.60;;;;;;20583;6745;308582;-76
2022/12/06 04:08:16;;;;;;;5.80;5.40;;;7.10;51.90;;;;;;20971;6716;117169;-76
2022/12/06 04:10:51;;;;;;;5.23;4.83;;;6.90;52.10;;;;;;20942;6731;116735;-76
2022/12/06 04:13:28;;;;;;;5.73;5.33;;;6.20;53.30;;;;;;20995;6716;117043;-76
2022/12/06 04:18:09;;;;;;;5.83;5.43;;;6.20;53.40;;;;;;20883;6715;117146;-76
2022/12/06 04:18:41;;;;;;;5.87;5.47;;;6.00;53.90;;;;;;20957;6772;116795;-76
2022/12/06 04:24:09;;;;;;;6.27;5.77;;;5.90;54.20;;;;;;19817;7079;122251;-75
2022/12/06 04:26:45;;;;;;;7.10;6.60;;;5.90;54.10;;;;;;20216;6839;311664;-76
2022/12/06 04:41:04;;;;;;;6.97;6.37;;;6.40;53.10;;;;;;20920;6739;116832;-74
2022/12/06 04:43:42;;;;;;;8.18;7.57;;;6.30;53.00;;;;;;20691;6739;301646;-75
2022/12/06 04:46:18;;;;;;;7.57;7.07;;;6.30;53.40;;;;;;20799;6724;120564;-75
2022/12/06 04:48:53;;;;;;;6.50;6.10;;;6.20;53.60;;;;;;20923;6737;116903;-74
2022/12/06 04:51:29;;;;;;;7.87;7.30;;;5.90;54.20;;;;;;20656;6751;336092;-74
2022/12/06 04:54:06;;;;;;;6.77;6.17;;;6.00;54.60;;;;;;20890;6736;117266;-77
2022/12/06 04:56:40;;;;;;;6.33;5.90;;;5.90;54.40;;;;;;20740;6734;117785;-76
2022/12/06 04:59:16;;;;;;;7.75;7.25;;;5.80;54.90;;;;;;20678;6741;335177;-76
2022/12/06 05:01:51;;;;;;;7.50;6.83;;;5.90;54.90;;;;;;20928;6746;117246;-76
2022/12/06 05:04:27;;;;;;;7.90;7.40;;;5.90;54.80;;;;;;20680;6745;279322;-76
2022/12/06 05:07:05;;;;;;;6.93;6.43;;;6.00;54.30;;;;;;20935;6731;117749;-77
2022/12/06 05:09:40;;;;;;;6.73;6.20;;;6.00;54.70;;;;;;20986;6716;117279;-76
2022/12/06 05:12:16;;;;;;;6.40;6.00;;;5.80;55.00;;;;;;20964;6719;120720;-77
2022/12/06 05:14:52;;;;;;;7.80;7.20;;;5.80;55.70;;;;;;20734;6719;280881;-79
2022/12/06 05:17:28;;;;;;;7.95;7.45;;;5.70;55.50;;;;;;20715;6734;306974;-81
2022/12/06 05:20:04;;;;;;;7.82;7.32;;;6.10;55.00;;;;;;20704;6731;307301;-79
2022/12/06 05:22:40;;;;;;;7.53;7.03;;;6.40;54.20;;;;;;20958;6775;116926;-79
2022/12/06 05:25:15;;;;;;;6.27;5.87;;;6.20;54.10;;;;;;20827;6747;118062;-79
2022/12/06 05:27:50;;;;;;;7.40;7.00;;;6.00;54.60;;;;;;20746;6725;305577;-76
2022/12/06 05:30:26;;;;;;;7.80;7.20;;;6.00;54.80;;;;;;20786;6704;307166;-77
2022/12/06 05:33:02;;;;;;;7.37;6.93;;;6.30;54.40;;;;;;20728;6732;306139;-76
2022/12/06 05:35:38;;;;;;;7.80;7.30;;;6.70;53.40;;;;;;20600;6734;308113;-77
2022/12/06 05:38:14;;;;;;;7.63;7.07;;;6.70;53.40;;;;;;20868;6745;121254;-78
2022/12/06 05:40:49;;;;;;;6.03;5.63;;;6.50;53.60;;;;;;20935;6731;117200;-78
2022/12/06 05:43:25;;;;;;;7.28;6.80;;;6.10;54.20;;;;;;20731;6729;306697;-75
2022/12/06 05:46:02;;;;;;;6.53;6.13;;;6.20;54.50;;;;;;20823;6730;116773;-76
2022/12/06 05:48:37;;;;;;;7.40;6.90;;;6.10;54.50;;;;;;20764;6716;306130;-77
2022/12/06 05:51:13;;;;;;;7.25;6.78;;;6.20;54.70;;;;;;20704;6734;308110;-79
2022/12/06 05:53:48;;;;;;;7.50;6.90;;;6.40;54.10;;;;;;20776;6716;276127;-77
2022/12/06 05:56:24;;;;;;;6.73;6.13;;;6.60;53.70;;;;;;20809;6716;120946;-76
2022/12/06 05:59:00;;;;;;;7.50;6.10;;;6.50;53.90;;;;;;20984;6716;120411;-75
2022/12/06 06:01:35;;;;;;;6.75;6.25;;;6.10;54.40;;;;;;20720;6732;334623;-73
2022/12/06 06:04:14;;;;;;;5.97;5.57;;;6.10;54.60;;;;;;20924;6731;116815;-75
2022/12/06 06:06:50;;;;;;;7.20;6.70;;;6.10;54.80;;;;;;20590;6716;307927;-78
2022/12/06 06:09:26;;;;;;;7.05;6.55;;;6.10;54.70;;;;;;20812;6701;322234;-77
2022/12/06 06:12:01;;;;;;;7.65;7.12;;;6.40;54.10;;;;;;20818;6701;304954;-77
2022/12/06 06:14:37;;;;;;;6.47;5.90;;;6.60;53.40;;;;;;21015;6701;117247;-75
2022/12/06 06:17:15;;;;;;;6.23;5.70;;;6.40;53.50;;;;;;21030;6701;116539;-78
2022/12/06 06:19:48;;;;;;;5.93;5.50;;;6.10;54.20;;;;;;21013;6701;116742;-76
2022/12/06 06:22:25;;;;;;;5.90;5.50;;;5.90;54.90;;;;;;21011;6701;118632;-75
2022/12/06 06:25:00;;;;;;;6.40;6.00;;;5.70;55.30;;;;;;20789;6701;277775;-75
2022/12/06 06:27:36;;;;;;;6.67;6.20;;;5.80;54.90;;;;;;20825;6701;275248;-75
2022/12/06 06:30:12;;;;;;;5.80;5.40;;;6.20;54.20;;;;;;21002;6701;129457;-78
2022/12/06 06:32:49;;;;;;;6.70;6.20;;;6.10;54.00;;;;;;20821;6701;307161;-75
2022/12/06 06:35:25;;;;;;;6.63;6.13;;;6.10;54.20;;;;;;20954;6701;116607;-76
2022/12/06 06:38:01;;;;;;;5.97;5.50;;;6.10;53.90;;;;;;21040;6701;117579;-76
2022/12/06 06:40:36;;;;;;;5.80;5.40;;;5.90;54.30;;;;;;21010;6700;116588;-77
2022/12/06 06:43:19;;;;;;;5.77;5.27;;;5.60;55.60;;;;;;21042;6701;119930;-75
2022/12/06 06:45:58;;;;;;;6.57;6.17;;;5.60;55.30;;;;;;20713;6701;307788;-80
2022/12/06 06:48:34;;;;;;;6.40;6.00;;;5.80;54.90;;;;;;20795;6700;307657;-74
2022/12/06 06:51:09;;;;;;;7.00;6.60;;;6.20;54.00;;;;;;20821;6701;307298;-74
2022/12/06 06:53:45;;;;;;;6.30;5.90;;;6.50;53.20;;;;;;20817;6701;305352;-75
2022/12/06 06:56:20;;;;;;;5.80;5.40;;;6.80;52.50;;;;;;20873;6701;117993;-75
2022/12/06 06:58:56;;;;;;;5.43;5.03;;;6.60;52.70;;;;;;21037;6701;116610;-74
2022/12/06 07:01:35;;;;;;;6.10;5.70;;;6.30;53.40;;;;;;20823;6701;304460;-80
2022/12/06 07:04:10;;;;;;;5.30;4.43;;;6.30;53.60;;;;;;21022;6701;117119;-75
2022/12/06 07:06:46;;;;;;;5.53;5.13;;;6.30;54.00;;;;;;20843;6701;116971;-75
2022/12/06 07:09:22;;;;;;;6.20;5.80;;;6.00;55.00;;;;;;21038;6701;118879;-76
2022/12/06 07:11:58;;;;;;;6.00;5.60;;;6.00;55.00;;;;;;20823;6701;307502;-76
2022/12/06 07:14:33;;;;;;;5.43;4.83;;;6.20;54.90;;;;;;21016;6701;115742;-76
2022/12/06 07:17:09;;;;;;;6.10;5.60;;;6.20;54.60;;;;;;20827;6701;336573;-76
2022/12/06 07:19:45;;;;;;;5.40;4.90;;;6.40;54.10;;;;;;21034;6701;116676;-76
2022/12/06 07:22:23;;;;;;;5.47;5.00;;;6.40;53.90;;;;;;21022;6701;116919;-76
2022/12/06 07:24:56;;;;;;;6.53;5.80;;;6.10;54.80;;;;;;21004;6701;119390;-76
2022/12/06 07:27:32;;;;;;;59.50;44.42;;;6.00;54.70;;;;;;20821;6701;299129;-78
2022/12/06 07:30:08;;;;;;;17.67;15.87;;;6.20;54.30;;;;;;21017;6701;118527;-76
2022/12/06 07:32:43;;;;;;;11.70;10.80;;;6.30;54.20;;;;;;20732;6734;288151;-80
2022/12/06 07:35:19;;;;;;;7.80;7.30;;;6.40;53.80;;;;;;20678;6731;310132;-79
2022/12/06 07:37:54;;;;;;;7.00;6.60;;;6.70;53.00;;;;;;20957;6731;120447;-77
2022/12/06 07:40:33;;;;;;;6.53;6.13;;;6.60;53.10;;;;;;20928;6729;121195;-77
2022/12/06 07:46:02;;;;;;;7.70;7.10;;;6.50;53.70;;;;;;20799;6739;119259;-77
2022/12/06 07:48:39;;;;;;;9.27;8.47;;;6.40;53.80;;;;;;20784;6711;306261;-77
2022/12/06 07:51:15;;;;;;;8.23;7.53;;;6.50;53.70;;;;;;21017;6710;116590;-77
2022/12/06 07:53:50;;;;;;;7.60;6.90;;;6.50;53.70;;;;;;20834;6700;277098;-79
2022/12/06 07:56:26;;;;;;;6.93;6.47;;;6.60;53.20;;;;;;20623;6715;307027;-77
2022/12/06 07:59:01;;;;;;;7.40;6.80;;;6.90;52.80;;;;;;20824;6715;303510;-76
2022/12/06 08:01:37;;;;;;;5.90;5.37;;;7.10;52.50;;;;;;20941;6734;117172;-77
2022/12/06 08:04:13;;;;;;;5.47;5.17;;;7.00;52.70;;;;;;20963;6721;119799;-77
2022/12/06 08:06:48;;;;;;;9.93;9.13;;;6.70;53.30;;;;;;20961;6709;117787;-76
2022/12/06 08:09:25;;;;;;;15.63;14.23;;;6.20;54.40;;;;;;20946;6731;116630;-76
2022/12/06 08:12:00;;;;;;;6.70;6.20;;;6.10;54.20;;;;;;20904;6746;117547;-77
2022/12/06 08:14:36;;;;;;;7.00;6.30;;;6.00;54.70;;;;;;20883;6747;117092;-76
2022/12/06 08:17:11;;;;;;;6.65;6.15;;;5.90;55.20;;;;;;20788;6716;336453;-76
2022/12/06 08:19:47;;;;;;;6.00;5.53;;;6.10;55.00;;;;;;20892;6745;116636;-77
2022/12/06 08:22:23;;;;;;;6.23;5.40;;;6.10;54.60;;;;;;20888;6744;119635;-76
2022/12/06 08:24:58;;;;;;;6.50;6.00;;;6.00;54.90;;;;;;20736;6711;306807;-77
2022/12/06 08:27:35;;;;;;;8.88;8.18;;;6.30;54.90;;;;;;20772;6713;333900;-75
2022/12/06 08:30:10;;;;;;;8.80;8.20;;;6.60;54.10;;;;;;20779;6709;320108;-77
2022/12/06 08:32:46;;;;;;;9.40;8.60;;;7.00;54.10;;;;;;21014;6709;116897;-77
2022/12/06 08:35:22;;;;;;;6.97;6.47;;;6.90;53.30;;;;;;20957;6709;119832;-77
2022/12/06 08:37:57;;;;;;;7.13;6.63;;;6.60;53.80;;;;;;20747;6732;279375;-77
2022/12/06 08:40:33;;;;;;;7.10;6.60;;;6.70;53.80;;;;;;20721;6731;323582;-77
2022/12/06 08:43:08;;;;;;;8.10;7.30;;;6.90;53.10;;;;;;20947;6731;116761;-76
2022/12/06 08:45:44;;;;;;;7.75;6.97;;;6.90;53.20;;;;;;20644;6719;331708;-76
2022/12/06 08:48:20;;;;;;;7.37;6.80;;;6.90;53.20;;;;;;20716;6716;280071;-76
2022/12/06 08:50:56;;;;;;;6.43;6.03;;;7.20;52.80;;;;;;20774;6716;307412;-75
2022/12/06 08:53:33;;;;;;;6.43;5.90;;;7.30;53.20;;;;;;21028;6701;119356;-74
2022/12/06 08:56:08;;;;;;;6.55;6.12;;;7.20;52.50;;;;;;20668;6701;336479;-75
2022/12/06 08:58:45;;;;;;;6.87;6.43;;;7.50;52.00;;;;;;20776;6716;337194;-75
2022/12/06 09:01:20;;;;;;;6.60;6.10;;;7.50;52.00;;;;;;20948;6731;119223;-75
2022/12/06 09:04:03;;;;;;;7.07;6.57;;;7.30;52.00;;;;;;20783;6717;276479;-74
2022/12/06 09:06:38;;;;;;;6.70;6.10;;;7.30;52.00;;;;;;20784;6730;117648;-75
2022/12/06 09:09:14;;;;;;;6.13;5.63;;;7.20;52.50;;;;;;20955;6730;120857;-74
2022/12/06 09:11:49;;;;;;;6.00;5.60;;;6.90;53.00;;;;;;20891;6745;120558;-77
2022/12/06 09:14:26;;;;;;;7.30;6.80;;;6.70;53.70;;;;;;20716;6730;282360;-74
2022/12/06 09:17:02;;;;;;;7.30;6.80;;;6.80;53.60;;;;;;20775;6719;275363;-77
2022/12/06 09:19:38;;;;;;;6.63;6.03;;;7.10;52.70;;;;;;20938;6734;116769;-76
2022/12/06 09:22:13;;;;;;;9.20;6.70;;;7.10;52.80;;;;;;20909;6740;116854;-76
2022/12/06 09:24:49;;;;;;;7.10;6.50;;;6.80;53.30;;;;;;20918;6730;117101;-75
2022/12/06 09:27:25;;;;;;;6.17;5.67;;;6.50;54.20;;;;;;20961;6726;117021;-76
2022/12/06 09:30:01;;;;;;;7.10;6.70;;;6.50;54.30;;;;;;20779;6716;276538;-78
2022/12/06 09:32:36;;;;;;;11.52;10.63;;;6.70;53.60;;;;;;20710;6732;304922;-78
2022/12/06 09:35:12;;;;;;;8.13;7.53;;;7.10;52.80;;;;;;20709;6724;277917;-76
2022/12/06 09:37:47;;;;;;;6.30;5.90;;;7.40;51.80;;;;;;20940;6731;116955;-77
2022/12/06 09:40:23;;;;;;;6.78;6.30;;;7.40;52.10;;;;;;20687;6729;288759;-76
2022/12/06 09:43:09;;;;;;;6.43;6.03;;;7.50;51.40;;;;;;20727;6731;306404;-77
2022/12/06 09:45:47;;;;;;;5.83;5.43;;;7.70;50.70;;;;;;20839;6734;117239;-76
2022/12/06 09:48:32;;;;;;;5.60;5.20;;;7.60;51.10;;;;;;20934;6726;117592;-77
2022/12/06 09:51:21;;;;;;;5.83;5.40;;;7.30;51.80;;;;;;20953;6728;119667;-76
2022/12/06 09:54:20;;;;;;;5.50;5.10;;;7.10;52.40;;;;;;20952;6728;117620;-75
2022/12/06 09:57:12;;;;;;;5.87;5.37;;;6.90;52.80;;;;;;20771;6785;118025;-75
2022/12/06 10:00:08;;;;;;;6.20;5.70;;;6.80;53.20;;;;;;21000;6716;120110;-76
2022/12/06 10:03:03;;;;;;;6.17;5.77;;;6.70;53.40;;;;;;20992;6716;118177;-77
2022/12/06 10:06:02;;;;;;;7.30;6.70;;;6.40;53.80;;;;;;20948;6701;116708;-77
2022/12/06 10:08:41;;;;;;;6.85;6.32;;;6.50;53.90;;;;;;20680;6716;336880;-79
2022/12/06 10:11:36;;;;;;;6.57;6.17;;;6.80;52.70;;;;;;20725;6731;308048;-76
2022/12/06 10:14:38;;;;;;;7.00;6.50;;;7.20;51.70;;;;;;20713;6730;306362;-72
2022/12/06 10:17:27;;;;;;;5.77;5.40;;;7.70;50.70;;;;;;20968;6738;116736;-76
2022/12/06 10:20:06;;;;;;;6.93;6.33;;;7.50;51.00;;;;;;20969;6724;116551;-73
2022/12/06 10:23:11;;;;;;;8.07;7.57;;;7.30;51.70;;;;;;20777;6732;284418;-73
2022/12/06 10:25:50;;;;;;;8.43;7.82;;;7.40;51.20;;;;;;20657;6731;307258;-73
2022/12/06 10:28:29;;;;;;;7.60;6.90;;;7.80;50.30;;;;;;20973;6716;117108;-76
2022/12/06 10:31:07;;;;;;;7.10;6.40;;;7.70;50.60;;;;;;20995;6716;117018;-76
2022/12/06 10:33:56;;;;;;;8.43;7.73;;;7.40;51.30;;;;;;20742;6730;305360;-75
2022/12/06 10:37:12;;;;;;;7.83;7.33;;;7.50;51.60;;;;;;20378;6843;306912;-75
2022/12/06 10:39:56;;;;;;;7.23;6.73;;;7.80;50.80;;;;;;21003;6716;118707;-73
2022/12/06 10:42:36;;;;;;;7.10;6.50;;;7.50;52.00;;;;;;20968;6719;118228;-74
2022/12/06 10:48:37;;;;;;;6.70;6.20;;;7.30;52.40;;;;;;20974;6716;116846;-75
2022/12/06 10:51:16;;;;;;;6.87;6.17;;;7.10;52.90;;;;;;20945;6731;117182;-74
2022/12/06 10:53:52;;;;;;;8.17;7.50;;;7.20;52.80;;;;;;20721;6734;277524;-75
2022/12/06 10:56:31;;;;;;;8.57;7.97;;;7.20;52.80;;;;;;20586;6731;298252;-74
2022/12/06 10:59:36;;;;;;;7.78;7.28;;;7.70;52.20;;;;;;20733;6731;306482;-73
2022/12/06 11:02:15;;;;;;;8.30;7.72;;;8.10;50.90;;;;;;19666;6802;321138;-72
2022/12/06 11:04:52;;;;;;;7.63;6.30;;;8.50;49.80;;;;;;20962;6716;118669;-73
2022/12/06 11:07:30;;;;;;;7.97;7.30;;;8.40;50.20;;;;;;20701;6745;279886;-73
2022/12/06 11:10:19;;;;;;;7.30;6.90;;;8.40;49.50;;;;;;20662;6747;307383;-72
2022/12/06 11:13:11;;;;;;;8.10;7.50;;;8.60;49.10;;;;;;20788;6716;309001;-69
2022/12/06 11:15:53;;;;;;;6.53;6.03;;;8.80;48.50;;;;;;20876;6716;117142;-70
2022/12/06 11:18:29;;;;;;;7.40;6.97;;;8.60;48.90;;;;;;20603;6772;276003;-70
2022/12/06 11:21:25;;;;;;;6.23;5.83;;;8.60;48.80;;;;;;20969;6716;117802;-69
2022/12/06 11:24:00;;;;;;;5.97;5.57;;;8.50;49.40;;;;;;20996;6716;117115;-69
2022/12/06 11:27:04;;;;;;;7.20;6.60;;;8.30;49.70;;;;;;20559;6732;296498;-69
2022/12/06 11:29:41;;;;;;;8.05;7.40;;;8.30;49.70;;;;;;20726;6732;335036;-70
2022/12/06 11:32:16;;;;;;;9.00;8.10;;;8.70;48.90;;;;;;20736;6724;278767;-70
2022/12/06 11:34:55;;;;;;;8.07;7.47;;;9.20;48.50;;;;;;20758;6713;279908;-70
2022/12/06 11:37:31;;;;;;;7.93;7.43;;;9.20;48.10;;;;;;20816;6719;277342;-71
2022/12/06 11:40:27;;;;;;;8.30;7.60;;;9.40;47.80;;;;;;20758;6716;306452;-72
2022/12/06 11:43:03;;;;;;;6.73;6.30;;;9.50;47.50;;;;;;20961;6726;118157;-75
2022/12/06 11:45:39;;;;;;;6.40;6.00;;;9.20;48.30;;;;;;20860;6731;116818;-71
2022/12/06 11:48:15;;;;;;;7.70;7.10;;;8.90;49.20;;;;;;20697;6732;319395;-70
2022/12/06 11:50:51;;;;;;;6.67;6.00;;;8.90;48.70;;;;;;20895;6749;117161;-72
2022/12/06 11:53:31;;;;;;;6.10;5.60;;;8.70;49.00;;;;;;20968;6741;116499;-72
2022/12/06 11:56:05;;;;;;;6.77;6.37;;;8.60;49.80;;;;;;20838;6747;117693;-73
2022/12/06 11:59:23;;;;;;;10.90;9.23;;;8.20;50.80;;;;;;21025;6709;116749;-72
2022/12/06 12:01:57;;;;;;;8.10;7.60;;;8.20;50.80;;;;;;20811;6707;304758;-72
2022/12/06 12:04:44;;;;;;;7.20;6.70;;;8.50;49.90;;;;;;20998;6709;116470;-71
2022/12/06 12:07:19;;;;;;;8.40;7.80;;;8.50;50.00;;;;;;20805;6709;305798;-72
2022/12/06 12:09:55;;;;;;;8.20;7.50;;;8.70;49.40;;;;;;20952;6731;120803;-73
2022/12/06 12:13:42;;;;;;;8.97;8.27;;;8.80;49.20;;;;;;20769;6716;277540;-76
2022/12/06 12:15:13;;;;;;;8.30;7.70;;;8.80;49.20;;;;;;20579;6805;281778;-75
2022/12/06 12:17:49;;;;;;;8.13;7.57;;;9.10;48.50;;;;;;20737;6731;335114;-71
2022/12/06 12:20:29;;;;;;;8.35;7.78;;;9.50;47.50;;;;;;20682;6745;335220;-72
2022/12/06 12:23:05;;;;;;;7.20;6.77;;;9.50;47.50;;;;;;20963;6731;116854;-72
2022/12/06 12:25:42;;;;;;;8.43;7.82;;;9.30;48.30;;;;;;20654;6729;321941;-73
2022/12/06 12:28:26;;;;;;;7.50;6.90;;;9.30;47.90;;;;;;20972;6716;116805;-74
2022/12/06 12:31:16;;;;;;;7.53;6.97;;;9.10;48.40;;;;;;20944;6731;117232;-72
2022/12/06 12:34:17;;;;;;;8.07;7.47;;;8.80;49.10;;;;;;20899;6746;116998;-72
2022/12/06 12:36:52;;;;;;;7.77;7.17;;;8.50;49.90;;;;;;20787;6784;115866;-72
2022/12/06 12:39:37;;;;;;;7.10;6.60;;;8.30;50.50;;;;;;20955;6729;117243;-73
2022/12/06 12:42:31;;;;;;;8.88;8.13;;;8.20;50.90;;;;;;20669;6745;306766;-74
2022/12/06 12:45:05;;;;;;;9.05;8.45;;;8.40;50.30;;;;;;20698;6730;278421;-74
2022/12/06 12:47:41;;;;;;;8.20;7.60;;;8.80;49.50;;;;;;20950;6730;116954;-72
2022/12/06 12:50:22;;;;;;;8.30;7.70;;;8.80;49.60;;;;;;20944;6724;118231;-73
2022/12/06 12:52:55;;;;;;;9.27;8.27;;;8.50;50.10;;;;;;20966;6724;116628;-73
2022/12/06 12:55:33;;;;;;;8.90;8.30;;;8.30;50.60;;;;;;20622;6739;308639;-76
2022/12/06 12:58:08;;;;;;;8.13;7.53;;;8.50;50.10;;;;;;20882;6745;117135;-72
2022/12/06 13:00:44;;;;;;;9.80;9.10;;;8.50;50.30;;;;;;20736;6730;338163;-72
2022/12/06 13:03:21;;;;;;;7.90;7.37;;;8.60;50.00;;;;;;20942;6730;116782;-71
2022/12/06 13:05:55;;;;;;;7.43;6.90;;;8.60;50.00;;;;;;20785;6744;116833;-71
2022/12/06 13:08:34;;;;;;;11.67;9.33;;;8.40;50.50;;;;;;20945;6729;116721;-72
2022/12/06 13:11:10;;;;;;;8.53;7.77;;;8.20;50.90;;;;;;20894;6749;117525;-74
2022/12/06 13:13:46;;;;;;;9.10;8.30;;;8.10;51.40;;;;;;20946;6734;119285;-75
2022/12/06 13:16:28;;;;;;;14.87;13.68;;;8.20;51.60;;;;;;20524;6746;337893;-74
2022/12/06 13:19:04;;;;;;;9.70;8.90;;;8.10;51.10;;;;;;21009;6711;119013;-75
2022/12/06 13:21:41;;;;;;;10.43;9.63;;;8.40;50.50;;;;;;20732;6731;310395;-77
2022/12/06 13:24:22;;;;;;;8.60;7.80;;;8.40;50.50;;;;;;20908;6736;119402;-75
2022/12/06 13:27:08;;;;;;;8.63;7.57;;;8.40;50.60;;;;;;20946;6732;118833;-74
2022/12/06 13:30:00;;;;;;;9.50;8.80;;;8.20;51.00;;;;;;20700;6736;286003;-74
2022/12/06 13:32:56;;;;;;;9.77;9.07;;;8.70;50.00;;;;;;20703;6732;306007;-75
2022/12/06 13:35:39;;;;;;;9.43;8.63;;;8.70;50.00;;;;;;20818;6745;119276;-74
2022/12/06 13:38:18;;;;;;;8.97;8.17;;;8.40;50.90;;;;;;20933;6744;118645;-74
2022/12/06 13:40:57;;;;;;;8.63;7.83;;;8.10;51.40;;;;;;20946;6729;117174;-74
2022/12/06 13:43:33;;;;;;;10.00;9.30;;;8.10;51.30;;;;;;20683;6746;309097;-75
2022/12/06 13:46:11;;;;;;;10.00;9.30;;;8.30;51.10;;;;;;20530;6746;305906;-73
2022/12/06 13:48:48;;;;;;;8.47;7.80;;;8.70;50.40;;;;;;20900;6745;117140;-73
2022/12/06 13:51:30;;;;;;;7.83;7.23;;;8.60;50.50;;;;;;20951;6730;121121;-73
2022/12/06 13:54:11;;;;;;;8.33;7.83;;;8.40;51.00;;;;;;20667;6744;306886;-77
2022/12/06 13:56:48;;;;;;;8.00;7.20;;;8.50;50.70;;;;;;20763;6730;120196;-73
2022/12/06 13:59:23;;;;;;;8.13;7.53;;;8.40;50.70;;;;;;20712;6731;306047;-73
2022/12/06 14:01:59;;;;;;;7.20;6.70;;;8.50;50.40;;;;;;20996;6716;116561;-73
2022/12/06 14:04:36;;;;;;;7.97;7.40;;;8.60;50.30;;;;;;20736;6717;337198;-73